SCFA

Details ICAO SCFA (ANF)
Name CERRO MORENO INTL
Region Chile
Timezone America/Santiago (UTC-3.0)
Plans Departing 116
Arriving 102
Stats Elevation 455 ft / 139 m (AMSL)
Location -23.444500° -70.445100°
Runways 1
Magnetic Variation 3.662° W
Sunrise 2018-12-19 09:52:52 UTC / 2018-12-19 06:52:52 Local
Sunset 2018-12-19 23:27:31 UTC / 2018-12-19 20:27:31 Local
Advertisement - Login to hide

Runways

ID Width Length Bearing (true/mag) Surface Threshold Overrun Markings Lighting
01 164 ft / 50 m 8,567 ft / 2,611 m 6.86° / 10.52° ASPHALT 0 ft / 0 m 50 ft / 15 m APP EDGE THRESHOLD MALS REIL-OMNI
19 164 ft / 50 m 8,567 ft / 2,611 m 186.86° / 190.52° ASPHALT 0 ft / 0 m 155 ft / 47 m APP EDGE THRESHOLD REIL-OMNI

Map

Weather


0- 5 10 15 20 25 30 35+ Temperature / °C

Clouds and Precipitation
Forecast for 2018-12-19 06:00 UTC. Updated 2 hours ago

Ground ~20,000 ft ~40,000 ft Winds

METAR

SCFA 190500Z 21006KT 9999 BKN013 17/13 Q1016 NOSIG

TAF

TAF SCFA 182251Z 1900/1924 22010KT 9999 FEW012 TN15/1907Z TX20/1917Z BECMG 1902/1904 18004KT BKN010 BECMG 1914/1916 20014KT FEW015

Frequencies

Approach 119.30 MHz ANTOFAGASTA APP
Ground 121.90 MHz
Approach 120.90 MHz ANTOFAGASTA APP
Tower 118.10 MHz ANTOFAGASTA TWR
Warning: Do not use this data for real-world aviation or navigation. No guarantee of current accuracy is given.